sensor_id;sensor_type;location;lat;lon;timestamp;temperature;humidity
23671;DHT22;12012;51.998;7.614;2024-02-14T00:01:05;8.00;93.70
23671;DHT22;12012;51.998;7.614;2024-02-14T00:03:32;8.10;79.50
23671;DHT22;12012;51.998;7.614;2024-02-14T00:05:58;8.10;67.30
23671;DHT22;12012;51.998;7.614;2024-02-14T00:08:23;8.10;52.70
23671;DHT22;12012;51.998;7.614;2024-02-14T00:10:49;8.10;58.80
23671;DHT22;12012;51.998;7.614;2024-02-14T00:13:15;8.10;88.10
23671;DHT22;12012;51.998;7.614;2024-02-14T00:15:43;8.20;99.90
23671;DHT22;12012;51.998;7.614;2024-02-14T00:18:09;8.20;99.90
23671;DHT22;12012;51.998;7.614;2024-02-14T00:20:35;8.20;99.90
23671;DHT22;12012;51.998;7.614;2024-02-14T00:23:01;8.20;99.90
23671;DHT22;12012;51.998;7.614;2024-02-14T00:25:27;8.20;99.90
23671;DHT22;12012;51.998;7.614;2024-02-14T00:27:52;8.20;99.90
23671;DHT22;12012;51.998;7.614;2024-02-14T00:30:19;8.20;99.90
23671;DHT22;12012;51.998;7.614;2024-02-14T00:32:46;8.10;1.00
23671;DHT22;12012;51.998;7.614;2024-02-14T00:35:11;8.10;1.00
23671;DHT22;12012;51.998;7.614;2024-02-14T00:37:37;8.10;99.90
23671;DHT22;12012;51.998;7.614;2024-02-14T00:40:03;8.10;1.00
23671;DHT22;12012;51.998;7.614;2024-02-14T00:42:29;8.00;99.90
23671;DHT22;12012;51.998;7.614;2024-02-14T00:44:54;8.00;99.90
23671;DHT22;12012;51.998;7.614;2024-02-14T00:47:20;7.90;1.00
23671;DHT22;12012;51.998;7.614;2024-02-14T00:49:46;7.90;99.90
23671;DHT22;12012;51.998;7.614;2024-02-14T00:52:11;7.90;99.90
23671;DHT22;12012;51.998;7.614;2024-02-14T00:54:37;7.80;99.90
23671;DHT22;12012;51.998;7.614;2024-02-14T00:57:03;7.80;1.00
23671;DHT22;12012;51.998;7.614;2024-02-14T00:59:28;7.80;90.00
23671;DHT22;12012;51.998;7.614;2024-02-14T01:01:54;7.70;1.00
23671;DHT22;12012;51.998;7.614;2024-02-14T01:04:19;7.70;99.90
23671;DHT22;12012;51.998;7.614;2024-02-14T01:06:45;7.70;99.90
23671;DHT22;12012;51.998;7.614;2024-02-14T01:09:10;7.60;1.00
23671;DHT22;12012;51.998;7.614;2024-02-14T01:11:36;7.60;99.90
23671;DHT22;12012;51.998;7.614;2024-02-14T01:14:03;7.60;99.90
23671;DHT22;12012;51.998;7.614;2024-02-14T01:16:29;7.50;99.90
23671;DHT22;12012;51.998;7.614;2024-02-14T01:18:55;7.50;99.90
23671;DHT22;12012;51.998;7.614;2024-02-14T01:21:20;7.50;99.90
23671;DHT22;12012;51.998;7.614;2024-02-14T01:23:46;7.50;1.00
23671;DHT22;12012;51.998;7.614;2024-02-14T01:26:11;7.50;99.90
23671;DHT22;12012;51.998;7.614;2024-02-14T01:28:37;7.50;1.00
23671;DHT22;12012;51.998;7.614;2024-02-14T01:31:03;7.50;1.00
23671;DHT22;12012;51.998;7.614;2024-02-14T01:33:29;7.60;1.00
23671;DHT22;12012;51.998;7.614;2024-02-14T01:35:56;7.60;1.00
23671;DHT22;12012;51.998;7.614;2024-02-14T01:38:23;7.60;1.00
23671;DHT22;12012;51.998;7.614;2024-02-14T01:40:48;7.60;1.00
23671;DHT22;12012;51.998;7.614;2024-02-14T01:43:14;7.60;1.00
23671;DHT22;12012;51.998;7.614;2024-02-14T01:45:40;7.60;1.00
23671;DHT22;12012;51.998;7.614;2024-02-14T01:48:06;7.60;1.00
23671;DHT22;12012;51.998;7.614;2024-02-14T01:50:34;7.60;1.00
23671;DHT22;12012;51.998;7.614;2024-02-14T01:53:01;7.60;1.00
23671;DHT22;12012;51.998;7.614;2024-02-14T01:55:27;7.60;1.00
23671;DHT22;12012;51.998;7.614;2024-02-14T01:57:54;7.60;1.00
23671;DHT22;12012;51.998;7.614;2024-02-14T02:00:20;7.60;1.00
23671;DHT22;12012;51.998;7.614;2024-02-14T02:02:45;7.60;1.00
23671;DHT22;12012;51.998;7.614;2024-02-14T02:05:12;7.60;1.00
23671;DHT22;12012;51.998;7.614;2024-02-14T02:07:39;7.60;1.00
23671;DHT22;12012;51.998;7.614;2024-02-14T02:10:10;7.60;1.00
23671;DHT22;12012;51.998;7.614;2024-02-14T02:12:36;7.60;1.00
23671;DHT22;12012;51.998;7.614;2024-02-14T02:15:05;7.70;1.00
23671;DHT22;12012;51.998;7.614;2024-02-14T02:17:31;7.70;1.00
23671;DHT22;12012;51.998;7.614;2024-02-14T02:19:58;7.70;1.00
23671;DHT22;12012;51.998;7.614;2024-02-14T02:22:24;7.70;1.00
23671;DHT22;12012;51.998;7.614;2024-02-14T02:24:50;7.70;1.00
23671;DHT22;12012;51.998;7.614;2024-02-14T02:27:16;7.70;1.00
23671;DHT22;12012;51.998;7.614;2024-02-14T02:29:42;7.70;1.00
23671;DHT22;12012;51.998;7.614;2024-02-14T02:32:07;7.70;1.00
23671;DHT22;12012;51.998;7.614;2024-02-14T02:34:35;7.70;1.00
23671;DHT22;12012;51.998;7.614;2024-02-14T02:37:03;7.80;1.00
23671;DHT22;12012;51.998;7.614;2024-02-14T02:39:32;7.80;1.00
23671;DHT22;12012;51.998;7.614;2024-02-14T02:41:59;7.80;1.00
23671;DHT22;12012;51.998;7.614;2024-02-14T02:44:25;7.80;1.00
23671;DHT22;12012;51.998;7.614;2024-02-14T02:46:50;7.90;1.00
23671;DHT22;12012;51.998;7.614;2024-02-14T02:49:16;7.90;1.00
23671;DHT22;12012;51.998;7.614;2024-02-14T02:51:42;7.90;1.00
23671;DHT22;12012;51.998;7.614;2024-02-14T02:54:07;7.90;1.00
23671;DHT22;12012;51.998;7.614;2024-02-14T02:56:34;7.90;1.00
23671;DHT22;12012;51.998;7.614;2024-02-14T02:58:59;7.90;1.00
23671;DHT22;12012;51.998;7.614;2024-02-14T03:01:25;7.80;1.00
23671;DHT22;12012;51.998;7.614;2024-02-14T03:03:56;7.80;17.20
23671;DHT22;12012;51.998;7.614;2024-02-14T03:06:21;7.80;33.60
23671;DHT22;12012;51.998;7.614;2024-02-14T03:08:47;7.80;44.80
23671;DHT22;12012;51.998;7.614;2024-02-14T03:11:15;7.80;59.50
23671;DHT22;12012;51.998;7.614;2024-02-14T03:13:40;7.80;71.70
23671;DHT22;12012;51.998;7.614;2024-02-14T03:16:06;7.80;75.80
23671;DHT22;12012;51.998;7.614;2024-02-14T03:18:32;7.70;82.20
23671;DHT22;12012;51.998;7.614;2024-02-14T03:20:58;7.80;82.70
23671;DHT22;12012;51.998;7.614;2024-02-14T03:23:23;7.80;86.40
23671;DHT22;12012;51.998;7.614;2024-02-14T03:25:49;7.80;87.50
23671;DHT22;12012;51.998;7.614;2024-02-14T03:28:16;7.80;89.60
23671;DHT22;12012;51.998;7.614;2024-02-14T03:30:42;7.80;88.50
23671;DHT22;12012;51.998;7.614;2024-02-14T03:33:08;7.80;83.60
23671;DHT22;12012;51.998;7.614;2024-02-14T03:35:33;7.90;80.30
23671;DHT22;12012;51.998;7.614;2024-02-14T03:38:02;7.90;77.50
23671;DHT22;12012;51.998;7.614;2024-02-14T03:40:28;7.90;75.40
23671;DHT22;12012;51.998;7.614;2024-02-14T03:42:58;8.00;72.60
23671;DHT22;12012;51.998;7.614;2024-02-14T03:45:24;8.00;71.80
23671;DHT22;12012;51.998;7.614;2024-02-14T03:47:49;8.00;67.30
23671;DHT22;12012;51.998;7.614;2024-02-14T03:50:15;8.00;67.10
23671;DHT22;12012;51.998;7.614;2024-02-14T03:52:41;8.00;61.70
23671;DHT22;12012;51.998;7.614;2024-02-14T03:55:08;8.00;58.70
23671;DHT22;12012;51.998;7.614;2024-02-14T03:57:39;8.00;54.70
23671;DHT22;12012;51.998;7.614;2024-02-14T04:00:05;8.10;54.20
23671;DHT22;12012;51.998;7.614;2024-02-14T04:02:34;8.10;46.60
23671;DHT22;12012;51.998;7.614;2024-02-14T04:05:00;8.20;42.80
23671;DHT22;12012;51.998;7.614;2024-02-14T04:07:25;8.20;46.20
23671;DHT22;12012;51.998;7.614;2024-02-14T04:09:51;8.20;50.40
23671;DHT22;12012;51.998;7.614;2024-02-14T04:12:17;8.20;66.60
23671;DHT22;12012;51.998;7.614;2024-02-14T04:14:43;8.20;73.30
23671;DHT22;12012;51.998;7.614;2024-02-14T04:17:09;8.10;91.70
23671;DHT22;12012;51.998;7.614;2024-02-14T04:19:36;8.10;98.30
23671;DHT22;12012;51.998;7.614;2024-02-14T04:22:02;8.10;99.90
23671;DHT22;12012;51.998;7.614;2024-02-14T04:24:27;8.10;99.90
23671;DHT22;12012;51.998;7.614;2024-02-14T04:26:53;8.10;99.90
23671;DHT22;12012;51.998;7.614;2024-02-14T04:29:20;8.10;99.90
23671;DHT22;12012;51.998;7.614;2024-02-14T04:31:46;8.10;99.90
23671;DHT22;12012;51.998;7.614;2024-02-14T04:34:11;8.00;99.90
23671;DHT22;12012;51.998;7.614;2024-02-14T04:36:39;8.00;99.90
23671;DHT22;12012;51.998;7.614;2024-02-14T04:39:05;8.00;99.90
23671;DHT22;12012;51.998;7.614;2024-02-14T04:41:31;8.00;99.90
23671;DHT22;12012;51.998;7.614;2024-02-14T04:43:56;8.00;99.90
23671;DHT22;12012;51.998;7.614;2024-02-14T04:46:22;8.00;99.90
23671;DHT22;12012;51.998;7.614;2024-02-14T04:48:48;8.00;99.90
23671;DHT22;12012;51.998;7.614;2024-02-14T04:51:13;8.00;99.90
23671;DHT22;12012;51.998;7.614;2024-02-14T04:53:39;8.00;99.90
23671;DHT22;12012;51.998;7.614;2024-02-14T04:56:05;8.00;99.90
23671;DHT22;12012;51.998;7.614;2024-02-14T04:58:30;8.00;99.90
23671;DHT22;12012;51.998;7.614;2024-02-14T05:00:56;8.00;99.90
23671;DHT22;12012;51.998;7.614;2024-02-14T05:03:21;8.10;99.90
23671;DHT22;12012;51.998;7.614;2024-02-14T05:05:49;8.10;99.90
23671;DHT22;12012;51.998;7.614;2024-02-14T05:08:15;8.10;99.90
23671;DHT22;12012;51.998;7.614;2024-02-14T05:10:41;8.10;99.90
23671;DHT22;12012;51.998;7.614;2024-02-14T05:13:06;8.10;99.90
23671;DHT22;12012;51.998;7.614;2024-02-14T05:15:32;8.10;99.90
23671;DHT22;12012;51.998;7.614;2024-02-14T05:18:00;8.10;99.90
23671;DHT22;12012;51.998;7.614;2024-02-14T05:20:26;8.10;99.90
23671;DHT22;12012;51.998;7.614;2024-02-14T05:22:51;8.10;99.90
23671;DHT22;12012;51.998;7.614;2024-02-14T05:25:17;8.20;99.90
23671;DHT22;12012;51.998;7.614;2024-02-14T05:27:44;8.20;99.90
23671;DHT22;12012;51.998;7.614;2024-02-14T05:30:12;8.20;99.90
23671;DHT22;12012;51.998;7.614;2024-02-14T05:32:38;8.20;99.90
23671;DHT22;12012;51.998;7.614;2024-02-14T05:35:05;8.20;99.90
23671;DHT22;12012;51.998;7.614;2024-02-14T05:37:34;8.30;99.90
23671;DHT22;12012;51.998;7.614;2024-02-14T05:40:02;8.30;99.90
23671;DHT22;12012;51.998;7.614;2024-02-14T05:42:28;8.30;99.90
23671;DHT22;12012;51.998;7.614;2024-02-14T05:44:53;8.30;99.90
23671;DHT22;12012;51.998;7.614;2024-02-14T05:47:19;8.30;99.90
23671;DHT22;12012;51.998;7.614;2024-02-14T05:49:44;8.30;99.90
23671;DHT22;12012;51.998;7.614;2024-02-14T05:52:11;8.30;99.90
23671;DHT22;12012;51.998;7.614;2024-02-14T05:54:36;8.30;99.90
23671;DHT22;12012;51.998;7.614;2024-02-14T05:57:02;8.40;99.90
23671;DHT22;12012;51.998;7.614;2024-02-14T05:59:28;8.40;99.90
23671;DHT22;12012;51.998;7.614;2024-02-14T06:01:53;8.40;99.90
23671;DHT22;12012;51.998;7.614;2024-02-14T06:04:19;8.40;99.90
23671;DHT22;12012;51.998;7.614;2024-02-14T06:06:44;8.40;99.90
23671;DHT22;12012;51.998;7.614;2024-02-14T06:09:10;8.40;99.90
23671;DHT22;12012;51.998;7.614;2024-02-14T06:11:37;8.40;99.90
23671;DHT22;12012;51.998;7.614;2024-02-14T06:14:08;8.50;99.90
23671;DHT22;12012;51.998;7.614;2024-02-14T06:16:34;8.50;99.90
23671;DHT22;12012;51.998;7.614;2024-02-14T06:19:00;8.50;99.90
23671;DHT22;12012;51.998;7.614;2024-02-14T06:21:26;8.50;99.90
23671;DHT22;12012;51.998;7.614;2024-02-14T06:23:52;8.50;99.90
23671;DHT22;12012;51.998;7.614;2024-02-14T06:26:18;8.50;99.90
23671;DHT22;12012;51.998;7.614;2024-02-14T06:28:44;8.60;99.90
23671;DHT22;12012;51.998;7.614;2024-02-14T06:31:10;8.60;99.90
23671;DHT22;12012;51.998;7.614;2024-02-14T06:33:36;8.70;99.90
23671;DHT22;12012;51.998;7.614;2024-02-14T06:36:02;8.70;99.90
23671;DHT22;12012;51.998;7.614;2024-02-14T06:38:27;8.70;99.90
23671;DHT22;12012;51.998;7.614;2024-02-14T06:40:53;8.70;99.90
23671;DHT22;12012;51.998;7.614;2024-02-14T06:43:18;8.70;99.90
23671;DHT22;12012;51.998;7.614;2024-02-14T06:45:45;8.70;99.90
23671;DHT22;12012;51.998;7.614;2024-02-14T06:48:10;8.80;99.90
23671;DHT22;12012;51.998;7.614;2024-02-14T06:50:36;8.80;99.90
23671;DHT22;12012;51.998;7.614;2024-02-14T06:53:02;8.80;99.90
23671;DHT22;12012;51.998;7.614;2024-02-14T06:55:28;8.80;99.90
23671;DHT22;12012;51.998;7.614;2024-02-14T06:57:55;8.80;99.90
23671;DHT22;12012;51.998;7.614;2024-02-14T07:00:22;8.80;99.90
23671;DHT22;12012;51.998;7.614;2024-02-14T07:02:47;8.90;99.90
23671;DHT22;12012;51.998;7.614;2024-02-14T07:05:13;8.80;99.90
23671;DHT22;12012;51.998;7.614;2024-02-14T07:07:40;8.90;99.90
23671;DHT22;12012;51.998;7.614;2024-02-14T07:10:07;8.90;99.90
23671;DHT22;12012;51.998;7.614;2024-02-14T07:12:32;8.90;99.90
23671;DHT22;12012;51.998;7.614;2024-02-14T07:14:58;8.90;99.90
23671;DHT22;12012;51.998;7.614;2024-02-14T07:17:23;9.00;99.90
23671;DHT22;12012;51.998;7.614;2024-02-14T07:19:49;9.00;99.90
23671;DHT22;12012;51.998;7.614;2024-02-14T07:22:15;9.00;99.90
23671;DHT22;12012;51.998;7.614;2024-02-14T07:24:41;9.00;99.90
23671;DHT22;12012;51.998;7.614;2024-02-14T07:27:08;9.00;99.90
23671;DHT22;12012;51.998;7.614;2024-02-14T07:29:33;9.00;99.90
23671;DHT22;12012;51.998;7.614;2024-02-14T07:32:01;9.00;99.90
23671;DHT22;12012;51.998;7.614;2024-02-14T07:34:27;9.00;99.90
23671;DHT22;12012;51.998;7.614;2024-02-14T07:36:53;9.10;99.90
23671;DHT22;12012;51.998;7.614;2024-02-14T07:39:18;9.10;99.90
23671;DHT22;12012;51.998;7.614;2024-02-14T07:41:44;9.10;99.90
23671;DHT22;12012;51.998;7.614;2024-02-14T07:44:10;9.10;99.90
23671;DHT22;12012;51.998;7.614;2024-02-14T07:46:35;9.10;99.90
23671;DHT22;12012;51.998;7.614;2024-02-14T07:49:01;9.10;99.90
23671;DHT22;12012;51.998;7.614;2024-02-14T07:51:27;9.10;99.90
23671;DHT22;12012;51.998;7.614;2024-02-14T07:53:54;9.20;99.90
23671;DHT22;12012;51.998;7.614;2024-02-14T07:56:19;9.10;99.90
23671;DHT22;12012;51.998;7.614;2024-02-14T07:58:45;9.20;99.90
23671;DHT22;12012;51.998;7.614;2024-02-14T08:01:11;9.20;99.90
23671;DHT22;12012;51.998;7.614;2024-02-14T08:03:37;9.20;99.90
23671;DHT22;12012;51.998;7.614;2024-02-14T08:06:02;9.20;99.90
23671;DHT22;12012;51.998;7.614;2024-02-14T08:08:28;9.30;99.90
23671;DHT22;12012;51.998;7.614;2024-02-14T08:10:54;9.30;99.90
23671;DHT22;12012;51.998;7.614;2024-02-14T08:13:20;9.30;99.90
23671;DHT22;12012;51.998;7.614;2024-02-14T08:15:45;9.30;99.90
23671;DHT22;12012;51.998;7.614;2024-02-14T08:18:11;9.40;99.90
23671;DHT22;12012;51.998;7.614;2024-02-14T08:20:38;9.40;99.90
23671;DHT22;12012;51.998;7.614;2024-02-14T08:23:04;9.40;99.90
23671;DHT22;12012;51.998;7.614;2024-02-14T08:25:29;9.40;99.90
23671;DHT22;12012;51.998;7.614;2024-02-14T08:27:56;9.40;99.90
23671;DHT22;12012;51.998;7.614;2024-02-14T08:30:21;9.40;99.90
23671;DHT22;12012;51.998;7.614;2024-02-14T08:32:47;9.40;99.90
23671;DHT22;12012;51.998;7.614;2024-02-14T08:35:13;9.50;99.90
23671;DHT22;12012;51.998;7.614;2024-02-14T08:37:39;9.50;99.90
23671;DHT22;12012;51.998;7.614;2024-02-14T08:40:06;9.50;99.90
23671;DHT22;12012;51.998;7.614;2024-02-14T08:42:33;9.50;99.90
23671;DHT22;12012;51.998;7.614;2024-02-14T08:44:59;9.50;99.90
23671;DHT22;12012;51.998;7.614;2024-02-14T08:47:24;9.50;99.90
23671;DHT22;12012;51.998;7.614;2024-02-14T08:49:50;9.50;99.90
23671;DHT22;12012;51.998;7.614;2024-02-14T08:52:16;9.50;99.90
23671;DHT22;12012;51.998;7.614;2024-02-14T08:54:42;9.50;99.90
23671;DHT22;12012;51.998;7.614;2024-02-14T08:57:07;9.60;99.90
23671;DHT22;12012;51.998;7.614;2024-02-14T08:59:33;9.60;99.90
23671;DHT22;12012;51.998;7.614;2024-02-14T09:01:59;9.60;99.90
23671;DHT22;12012;51.998;7.614;2024-02-14T09:04:24;9.60;99.90
23671;DHT22;12012;51.998;7.614;2024-02-14T09:06:50;9.60;99.90
23671;DHT22;12012;51.998;7.614;2024-02-14T09:09:15;9.60;99.90
23671;DHT22;12012;51.998;7.614;2024-02-14T09:11:41;9.60;99.90
23671;DHT22;12012;51.998;7.614;2024-02-14T09:14:07;9.70;99.90
23671;DHT22;12012;51.998;7.614;2024-02-14T09:16:33;9.70;99.90
23671;DHT22;12012;51.998;7.614;2024-02-14T09:18:59;9.70;99.90
23671;DHT22;12012;51.998;7.614;2024-02-14T09:21:26;9.70;99.90
23671;DHT22;12012;51.998;7.614;2024-02-14T09:23:53;9.80;99.90
23671;DHT22;12012;51.998;7.614;2024-02-14T09:26:18;9.80;99.90
23671;DHT22;12012;51.998;7.614;2024-02-14T09:28:44;9.80;99.90
23671;DHT22;12012;51.998;7.614;2024-02-14T09:31:09;9.90;99.90
23671;DHT22;12012;51.998;7.614;2024-02-14T09:33:37;9.90;99.90
23671;DHT22;12012;51.998;7.614;2024-02-14T09:36:03;9.90;99.90
23671;DHT22;12012;51.998;7.614;2024-02-14T09:38:30;9.90;99.90
23671;DHT22;12012;51.998;7.614;2024-02-14T09:41:02;9.90;99.90
23671;DHT22;12012;51.998;7.614;2024-02-14T09:43:36;9.90;99.90
23671;DHT22;12012;51.998;7.614;2024-02-14T09:46:03;9.90;99.90
23671;DHT22;12012;51.998;7.614;2024-02-14T09:48:30;10.00;99.90
23671;DHT22;12012;51.998;7.614;2024-02-14T09:50:56;10.60;99.90
23671;DHT22;12012;51.998;7.614;2024-02-14T09:53:23;10.00;99.90
23671;DHT22;12012;51.998;7.614;2024-02-14T09:55:49;10.10;99.90
23671;DHT22;12012;51.998;7.614;2024-02-14T09:58:16;10.10;99.90
23671;DHT22;12012;51.998;7.614;2024-02-14T10:00:42;10.10;99.90
23671;DHT22;12012;51.998;7.614;2024-02-14T10:09:51;10.20;99.90
23671;DHT22;12012;51.998;7.614;2024-02-14T10:12:17;10.20;99.90
23671;DHT22;12012;51.998;7.614;2024-02-14T10:14:43;10.20;99.90
23671;DHT22;12012;51.998;7.614;2024-02-14T10:17:08;10.30;99.90
23671;DHT22;12012;51.998;7.614;2024-02-14T10:19:35;10.30;99.90
23671;DHT22;12012;51.998;7.614;2024-02-14T10:22:01;10.30;99.90
23671;DHT22;12012;51.998;7.614;2024-02-14T10:24:31;10.40;99.90
23671;DHT22;12012;51.998;7.614;2024-02-14T10:26:59;10.40;99.90
23671;DHT22;12012;51.998;7.614;2024-02-14T10:29:25;10.00;99.90
23671;DHT22;12012;51.998;7.614;2024-02-14T10:31:50;10.40;99.90
23671;DHT22;12012;51.998;7.614;2024-02-14T10:34:18;10.40;99.90
23671;DHT22;12012;51.998;7.614;2024-02-14T10:36:44;10.50;99.90
23671;DHT22;12012;51.998;7.614;2024-02-14T10:39:11;10.50;99.90
23671;DHT22;12012;51.998;7.614;2024-02-14T10:41:37;10.50;99.90
23671;DHT22;12012;51.998;7.614;2024-02-14T10:44:05;10.60;99.90
23671;DHT22;12012;51.998;7.614;2024-02-14T10:46:37;10.60;99.90
23671;DHT22;12012;51.998;7.614;2024-02-14T10:49:06;10.60;99.90
23671;DHT22;12012;51.998;7.614;2024-02-14T10:51:38;10.60;99.90
23671;DHT22;12012;51.998;7.614;2024-02-14T10:54:08;10.60;99.90
23671;DHT22;12012;51.998;7.614;2024-02-14T10:56:45;10.70;99.90
23671;DHT22;12012;51.998;7.614;2024-02-14T10:59:15;10.70;99.90
23671;DHT22;12012;51.998;7.614;2024-02-14T11:01:43;10.60;99.90
23671;DHT22;12012;51.998;7.614;2024-02-14T11:04:09;10.60;99.90
23671;DHT22;12012;51.998;7.614;2024-02-14T11:06:46;10.60;99.90
23671;DHT22;12012;51.998;7.614;2024-02-14T11:09:12;10.50;99.90
23671;DHT22;12012;51.998;7.614;2024-02-14T11:11:44;10.50;99.90
23671;DHT22;12012;51.998;7.614;2024-02-14T11:14:09;10.50;99.90
23671;DHT22;12012;51.998;7.614;2024-02-14T11:16:37;10.50;99.90
23671;DHT22;12012;51.998;7.614;2024-02-14T11:19:09;10.50;99.90
23671;DHT22;12012;51.998;7.614;2024-02-14T11:21:42;10.50;99.90
23671;DHT22;12012;51.998;7.614;2024-02-14T11:24:12;10.50;99.90
23671;DHT22;12012;51.998;7.614;2024-02-14T11:26:47;10.50;99.90
23671;DHT22;12012;51.998;7.614;2024-02-14T11:29:16;10.50;99.90
23671;DHT22;12012;51.998;7.614;2024-02-14T11:31:42;10.50;99.90
23671;DHT22;12012;51.998;7.614;2024-02-14T11:34:10;10.50;99.90
23671;DHT22;12012;51.998;7.614;2024-02-14T11:36:36;10.50;99.90
23671;DHT22;12012;51.998;7.614;2024-02-14T11:39:05;10.50;99.90
23671;DHT22;12012;51.998;7.614;2024-02-14T11:41:32;10.50;99.90
23671;DHT22;12012;51.998;7.614;2024-02-14T11:44:01;10.40;99.90
23671;DHT22;12012;51.998;7.614;2024-02-14T11:46:38;10.40;99.90
23671;DHT22;12012;51.998;7.614;2024-02-14T11:49:05;10.40;99.90
23671;DHT22;12012;51.998;7.614;2024-02-14T11:51:34;10.40;99.90
23671;DHT22;12012;51.998;7.614;2024-02-14T11:54:06;10.40;99.90
23671;DHT22;12012;51.998;7.614;2024-02-14T11:56:39;10.40;99.90
23671;DHT22;12012;51.998;7.614;2024-02-14T11:59:06;10.40;99.90
23671;DHT22;12012;51.998;7.614;2024-02-14T12:01:34;10.40;99.90
23671;DHT22;12012;51.998;7.614;2024-02-14T12:04:00;10.40;99.90
23671;DHT22;12012;51.998;7.614;2024-02-14T12:06:27;10.50;99.90
23671;DHT22;12012;51.998;7.614;2024-02-14T12:08:54;10.50;99.90
23671;DHT22;12012;51.998;7.614;2024-02-14T12:11:21;10.50;99.90
23671;DHT22;12012;51.998;7.614;2024-02-14T12:13:50;10.50;99.90
23671;DHT22;12012;51.998;7.614;2024-02-14T12:16:15;10.60;99.90
23671;DHT22;12012;51.998;7.614;2024-02-14T12:18:41;10.60;99.90
23671;DHT22;12012;51.998;7.614;2024-02-14T12:21:07;10.70;99.90
23671;DHT22;12012;51.998;7.614;2024-02-14T12:23:33;10.70;99.90
23671;DHT22;12012;51.998;7.614;2024-02-14T12:26:03;10.70;99.90
23671;DHT22;12012;51.998;7.614;2024-02-14T12:28:29;10.70;99.90
23671;DHT22;12012;51.998;7.614;2024-02-14T12:30:58;10.70;99.90
23671;DHT22;12012;51.998;7.614;2024-02-14T12:33:25;10.80;99.90
23671;DHT22;12012;51.998;7.614;2024-02-14T12:35:51;10.80;99.90
23671;DHT22;12012;51.998;7.614;2024-02-14T12:38:19;10.90;99.90
23671;DHT22;12012;51.998;7.614;2024-02-14T12:40:45;10.90;99.90
23671;DHT22;12012;51.998;7.614;2024-02-14T12:43:12;10.90;99.90
23671;DHT22;12012;51.998;7.614;2024-02-14T12:45:39;10.90;99.90
23671;DHT22;12012;51.998;7.614;2024-02-14T12:48:06;11.00;99.90
23671;DHT22;12012;51.998;7.614;2024-02-14T12:50:33;11.00;99.90
23671;DHT22;12012;51.998;7.614;2024-02-14T12:53:02;11.00;99.90
23671;DHT22;12012;51.998;7.614;2024-02-14T12:55:28;11.00;99.90
23671;DHT22;12012;51.998;7.614;2024-02-14T12:57:54;11.00;99.90
23671;DHT22;12012;51.998;7.614;2024-02-14T13:00:20;11.00;99.90
23671;DHT22;12012;51.998;7.614;2024-02-14T13:02:50;11.00;99.90
23671;DHT22;12012;51.998;7.614;2024-02-14T13:05:16;11.00;99.90
23671;DHT22;12012;51.998;7.614;2024-02-14T13:07:42;11.00;99.90
23671;DHT22;12012;51.998;7.614;2024-02-14T13:10:09;11.10;99.90
23671;DHT22;12012;51.998;7.614;2024-02-14T13:12:36;11.10;99.90
23671;DHT22;12012;51.998;7.614;2024-02-14T13:15:03;11.10;99.90
23671;DHT22;12012;51.998;7.614;2024-02-14T13:17:29;11.10;99.90
23671;DHT22;12012;51.998;7.614;2024-02-14T13:19:54;11.10;99.90
23671;DHT22;12012;51.998;7.614;2024-02-14T13:22:20;11.10;99.90
23671;DHT22;12012;51.998;7.614;2024-02-14T13:24:45;11.10;99.90
23671;DHT22;12012;51.998;7.614;2024-02-14T13:27:11;11.10;99.90
23671;DHT22;12012;51.998;7.614;2024-02-14T13:29:37;11.10;99.90
23671;DHT22;12012;51.998;7.614;2024-02-14T13:32:03;11.00;99.90
23671;DHT22;12012;51.998;7.614;2024-02-14T13:34:30;11.00;99.90
23671;DHT22;12012;51.998;7.614;2024-02-14T13:36:56;11.10;99.90
23671;DHT22;12012;51.998;7.614;2024-02-14T13:39:23;11.10;99.90
23671;DHT22;12012;51.998;7.614;2024-02-14T13:41:48;11.10;99.90
23671;DHT22;12012;51.998;7.614;2024-02-14T13:44:14;11.10;99.90
23671;DHT22;12012;51.998;7.614;2024-02-14T13:46:44;11.10;99.90
23671;DHT22;12012;51.998;7.614;2024-02-14T13:49:11;11.10;99.90
23671;DHT22;12012;51.998;7.614;2024-02-14T13:51:38;11.10;99.90
23671;DHT22;12012;51.998;7.614;2024-02-14T13:54:03;11.20;99.90
23671;DHT22;12012;51.998;7.614;2024-02-14T13:56:29;11.20;99.90
23671;DHT22;12012;51.998;7.614;2024-02-14T13:58:55;11.10;99.90
23671;DHT22;12012;51.998;7.614;2024-02-14T14:01:20;11.20;99.90
23671;DHT22;12012;51.998;7.614;2024-02-14T14:03:46;11.20;99.90
23671;DHT22;12012;51.998;7.614;2024-02-14T14:06:13;11.10;99.90
23671;DHT22;12012;51.998;7.614;2024-02-14T14:08:39;11.10;99.90
23671;DHT22;12012;51.998;7.614;2024-02-14T14:11:05;11.10;99.90
23671;DHT22;12012;51.998;7.614;2024-02-14T14:13:31;11.10;99.90
23671;DHT22;12012;51.998;7.614;2024-02-14T14:15:59;11.10;99.90
23671;DHT22;12012;51.998;7.614;2024-02-14T14:18:24;11.10;99.90
23671;DHT22;12012;51.998;7.614;2024-02-14T14:20:50;11.10;99.90
23671;DHT22;12012;51.998;7.614;2024-02-14T14:23:15;11.10;99.90
23671;DHT22;12012;51.998;7.614;2024-02-14T14:25:41;11.00;99.90
23671;DHT22;12012;51.998;7.614;2024-02-14T14:28:07;11.00;99.90
23671;DHT22;12012;51.998;7.614;2024-02-14T14:30:37;11.10;99.90
23671;DHT22;12012;51.998;7.614;2024-02-14T14:33:04;11.00;99.90
23671;DHT22;12012;51.998;7.614;2024-02-14T14:35:30;11.00;99.90
23671;DHT22;12012;51.998;7.614;2024-02-14T14:37:59;11.00;99.90
23671;DHT22;12012;51.998;7.614;2024-02-14T14:40:25;11.00;99.90
23671;DHT22;12012;51.998;7.614;2024-02-14T14:42:51;11.00;99.90
23671;DHT22;12012;51.998;7.614;2024-02-14T14:45:18;11.00;99.90
23671;DHT22;12012;51.998;7.614;2024-02-14T14:47:43;11.10;99.90
23671;DHT22;12012;51.998;7.614;2024-02-14T14:50:09;11.10;99.90
23671;DHT22;12012;51.998;7.614;2024-02-14T14:52:35;11.00;99.90
23671;DHT22;12012;51.998;7.614;2024-02-14T14:55:03;11.00;99.90
23671;DHT22;12012;51.998;7.614;2024-02-14T14:57:29;11.00;99.90
23671;DHT22;12012;51.998;7.614;2024-02-14T14:59:55;11.00;99.90
23671;DHT22;12012;51.998;7.614;2024-02-14T15:02:20;11.00;99.90
23671;DHT22;12012;51.998;7.614;2024-02-14T15:04:47;11.00;99.90
23671;DHT22;12012;51.998;7.614;2024-02-14T15:07:14;11.00;99.90
23671;DHT22;12012;51.998;7.614;2024-02-14T15:09:41;11.00;99.90
23671;DHT22;12012;51.998;7.614;2024-02-14T15:12:06;11.00;99.90
23671;DHT22;12012;51.998;7.614;2024-02-14T15:14:33;11.00;99.90
23671;DHT22;12012;51.998;7.614;2024-02-14T15:16:58;11.00;99.90
23671;DHT22;12012;51.998;7.614;2024-02-14T15:19:25;11.00;99.90
23671;DHT22;12012;51.998;7.614;2024-02-14T15:21:51;11.00;99.90
23671;DHT22;12012;51.998;7.614;2024-02-14T15:24:16;11.00;99.90
23671;DHT22;12012;51.998;7.614;2024-02-14T15:26:42;11.00;99.90
23671;DHT22;12012;51.998;7.614;2024-02-14T15:29:25;11.00;99.90
23671;DHT22;12012;51.998;7.614;2024-02-14T15:32:09;11.00;99.90
23671;DHT22;12012;51.998;7.614;2024-02-14T15:34:53;11.00;99.90
23671;DHT22;12012;51.998;7.614;2024-02-14T15:37:19;11.00;99.90
23671;DHT22;12012;51.998;7.614;2024-02-14T15:39:45;11.00;99.90
23671;DHT22;12012;51.998;7.614;2024-02-14T15:42:10;11.00;99.90
23671;DHT22;12012;51.998;7.614;2024-02-14T15:44:36;11.00;99.90